CMB823 Details

Departure: Patrick Air Force Base (KCOF)
Arrival: Grantley Adams International Airport (TBPB)
Route: TEDAE VENDS BRRGO BR1L GTK L452 BQN RTE4 COY A555 BG
Notes: USTRANSCOM CONTRACT FLIGHT


Current Weather Information
KCOF 251056Z AUTO 13003KT 10SM CLR 24/21 A3010 RMK AO2 SLP197 T02400209 $
TBPB 251100Z 11012KT 9999 SCT020 28/23 Q1013 NOSIG